Keith, Illinois
Current Conditions -  °F | °C
As of 12:15 PM on Monday 26 Jan 2015 (Local Time) from KFOA Reporting Station
Scattered Clouds Scattered Clouds  
Wind Chill: 21°   Ceiling: Unl
Heat Index: 29°   Visibility: 10mi
Dew Point: 21°   Wind: 9mph
Humidity: 71%   Direction: 250°WSW
Pressure: 29.97"   Gusts: NA
Location:  38.5816°N, 88.4678°W
Report Text: KFOA 261815Z AUTO 25008KT 10SM SCT055 SCT070 M01/M06 A2997 RMK AO2 T10141060
Loading
Personal Weather Stations






























Interactive Weather Map New forecast layout! Learn more

10-Day Weather Forecast

Advertisements
Track Severe Weather on mobile